Time;durP1;ratioP1;P1;durP2;ratioP2;P2;SDS_P1;SDS_P2;PMS_P1;PMS_P2;Temp;Humidity;BMP_temperature;BMP_pressure;BME280_temperature;BME280_humidity;BME280_pressure;Samples;Min_cycle;Max_cycle;Signal;HPM_P1;HPM_P2
2021/12/19 00:00:08;;;;;;;10.32;6.20;;;;;;;;;;5003299;28;20223;-61
2021/12/19 00:10:36;;;;;;;10.05;6.72;;;;;;;;;;4995071;28;20723;-61
2021/12/19 00:13:01;;;;;;;13.82;7.38;;;;;;;;;;4997572;28;20204;-61
2021/12/19 00:15:26;;;;;;;12.30;7.18;;;;;;;;;;5002693;28;20224;-61
2021/12/19 00:17:52;;;;;;;13.75;7.78;;;;;;;;;;5003124;28;20227;-61
2021/12/19 00:20:17;;;;;;;12.30;6.80;;;;;;;;;;5003586;28;20212;-61
2021/12/19 00:22:42;;;;;;;11.30;6.53;;;;;;;;;;5003827;28;20308;-61
2021/12/19 00:25:08;;;;;;;11.32;6.97;;;;;;;;;;5002616;28;20216;-61
2021/12/19 00:27:33;;;;;;;13.65;7.32;;;;;;;;;;5003433;28;20231;-61
2021/12/19 00:29:58;;;;;;;11.05;6.90;;;;;;;;;;4996488;28;20450;-61
2021/12/19 00:32:24;;;;;;;11.15;6.95;;;;;;;;;;4994625;28;20220;-61
2021/12/19 00:34:51;;;;;;;10.38;6.63;;;;;;;;;;4996452;28;20873;-61
2021/12/19 00:37:17;;;;;;;9.85;6.15;;;;;;;;;;5003205;28;20274;-61
2021/12/19 00:39:43;;;;;;;9.02;5.95;;;;;;;;;;5002922;28;20224;-61
2021/12/19 00:42:08;;;;;;;9.18;6.10;;;;;;;;;;5003144;28;20216;-61
2021/12/19 00:44:35;;;;;;;10.02;6.32;;;;;;;;;;5003132;28;20223;-61
2021/12/19 00:47:07;;;;;;;9.35;5.45;;;;;;;;;;5001261;28;20220;-61
2021/12/19 00:49:32;;;;;;;9.20;5.53;;;;;;;;;;5003040;28;20215;-61
2021/12/19 00:51:58;;;;;;;9.80;5.75;;;;;;;;;;4996526;28;20216;-61
2021/12/19 00:54:23;;;;;;;10.77;6.28;;;;;;;;;;4994926;28;20731;-61
2021/12/19 00:56:49;;;;;;;9.35;5.95;;;;;;;;;;5010540;28;20201;-61
2021/12/19 00:59:14;;;;;;;10.80;5.63;;;;;;;;;;5000854;28;20741;-61
2021/12/19 01:01:39;;;;;;;8.93;5.55;;;;;;;;;;5003552;28;20231;-61
2021/12/19 01:04:06;;;;;;;8.73;5.60;;;;;;;;;;5002841;28;20231;-61
2021/12/19 01:06:31;;;;;;;10.68;6.55;;;;;;;;;;5000869;28;20675;-61
2021/12/19 01:08:56;;;;;;;8.70;5.60;;;;;;;;;;5003298;28;20251;-61
2021/12/19 01:11:22;;;;;;;8.38;5.47;;;;;;;;;;5001337;28;20589;-61
2021/12/19 01:13:47;;;;;;;9.55;6.28;;;;;;;;;;4997176;28;20209;-61
2021/12/19 01:16:12;;;;;;;8.27;5.18;;;;;;;;;;4994919;28;20564;-61
2021/12/19 01:18:38;;;;;;;8.75;6.00;;;;;;;;;;4995348;28;20212;-61
2021/12/19 01:21:03;;;;;;;9.00;5.57;;;;;;;;;;4997998;28;20312;-61
2021/12/19 01:23:28;;;;;;;9.73;5.90;;;;;;;;;;5003176;28;20220;-61
2021/12/19 01:25:54;;;;;;;7.82;5.22;;;;;;;;;;5002789;28;20213;-60
2021/12/19 01:28:19;;;;;;;8.55;4.82;;;;;;;;;;5000409;28;21191;-61
2021/12/19 01:30:44;;;;;;;7.93;4.55;;;;;;;;;;5002863;28;20217;-61
2021/12/19 01:33:09;;;;;;;7.13;4.32;;;;;;;;;;5017417;28;20220;-61
2021/12/19 01:35:35;;;;;;;7.57;4.47;;;;;;;;;;4999452;28;20258;-61
2021/12/19 01:38:00;;;;;;;8.13;4.40;;;;;;;;;;4993181;28;20216;-63
2021/12/19 01:40:25;;;;;;;6.47;3.90;;;;;;;;;;4993650;28;20254;-61
2021/12/19 01:42:52;;;;;;;6.20;3.78;;;;;;;;;;4996078;28;20216;-61
2021/12/19 01:45:21;;;;;;;5.85;3.45;;;;;;;;;;5002176;28;20252;-61
2021/12/19 01:47:47;;;;;;;6.40;3.38;;;;;;;;;;5001557;28;20209;-61
2021/12/19 01:50:12;;;;;;;7.38;3.67;;;;;;;;;;5001692;28;20216;-61
2021/12/19 01:52:38;;;;;;;5.13;3.10;;;;;;;;;;5002580;28;20225;-61
2021/12/19 01:55:03;;;;;;;6.72;3.35;;;;;;;;;;5000965;28;20227;-61
2021/12/19 01:57:28;;;;;;;5.97;3.30;;;;;;;;;;5001695;28;20312;-61
2021/12/19 01:59:54;;;;;;;6.70;3.45;;;;;;;;;;4995176;28;20249;-61
2021/12/19 02:02:19;;;;;;;5.43;3.03;;;;;;;;;;4993733;28;20270;-61
2021/12/19 02:04:44;;;;;;;7.03;3.47;;;;;;;;;;4995075;28;20216;-61
2021/12/19 02:07:10;;;;;;;5.50;3.30;;;;;;;;;;5001629;28;20655;-61
2021/12/19 02:09:35;;;;;;;5.60;3.30;;;;;;;;;;5001462;28;20224;-61
2021/12/19 02:12:03;;;;;;;6.47;3.58;;;;;;;;;;5001588;28;20224;-61
2021/12/19 02:14:28;;;;;;;5.38;3.13;;;;;;;;;;5001955;28;20597;-61
2021/12/19 02:16:53;;;;;;;6.13;3.47;;;;;;;;;;5001343;28;20219;-61
2021/12/19 02:19:19;;;;;;;6.32;3.55;;;;;;;;;;5002003;28;20295;-61
2021/12/19 02:21:44;;;;;;;6.18;3.80;;;;;;;;;;4996460;28;20216;-61
2021/12/19 02:24:10;;;;;;;5.95;3.90;;;;;;;;;;4996026;28;20205;-61
2021/12/19 02:26:36;;;;;;;5.90;3.45;;;;;;;;;;4998062;28;20213;-61
2021/12/19 02:29:01;;;;;;;5.72;3.40;;;;;;;;;;5002987;28;20205;-61
2021/12/19 02:31:28;;;;;;;6.30;3.20;;;;;;;;;;5005037;28;20231;-61
2021/12/19 02:34:09;;;;;;;5.85;3.10;;;;;;;;;;5003230;28;20208;-61
2021/12/19 02:37:00;;;;;;;5.15;2.88;;;;;;;;;;5003930;28;20246;-61
2021/12/19 02:39:49;;;;;;;6.72;3.53;;;;;;;;;;5003619;28;20307;-61
2021/12/19 02:50:34;;;;;;;4.65;2.60;;;;;;;;;;4999548;28;20215;-61
2021/12/19 02:52:59;;;;;;;3.83;2.40;;;;;;;;;;5004376;28;20232;-61
2021/12/19 02:55:25;;;;;;;3.67;2.20;;;;;;;;;;5004647;28;20696;-61
2021/12/19 02:57:51;;;;;;;4.65;2.17;;;;;;;;;;5004731;28;20231;-61
2021/12/19 03:00:18;;;;;;;3.42;2.20;;;;;;;;;;5002248;28;20233;-61
2021/12/19 03:02:43;;;;;;;4.95;2.00;;;;;;;;;;5003328;28;20208;-61
2021/12/19 03:05:09;;;;;;;2.50;1.60;;;;;;;;;;5003958;28;20221;-61
2021/12/19 03:07:39;;;;;;;3.20;1.98;;;;;;;;;;4996550;28;20205;-61
2021/12/19 03:12:49;;;;;;;4.28;2.10;;;;;;;;;;4997031;28;20235;-61
2021/12/19 03:18:03;;;;;;;3.03;1.90;;;;;;;;;;5004554;28;20219;-61
2021/12/19 03:20:30;;;;;;;2.97;1.80;;;;;;;;;;5003463;28;20664;-61
2021/12/19 03:22:56;;;;;;;3.70;2.08;;;;;;;;;;5004708;28;20209;-61
2021/12/19 03:25:21;;;;;;;4.07;1.90;;;;;;;;;;5004048;28;20780;-61
2021/12/19 03:27:46;;;;;;;3.38;1.90;;;;;;;;;;5002734;28;20222;-61
2021/12/19 03:30:11;;;;;;;3.58;2.03;;;;;;;;;;4995003;28;20225;-61
2021/12/19 03:32:37;;;;;;;4.32;2.15;;;;;;;;;;4996656;28;20228;-61
2021/12/19 03:35:03;;;;;;;4.43;2.22;;;;;;;;;;4994246;28;20684;-61
2021/12/19 03:37:28;;;;;;;3.25;1.83;;;;;;;;;;5004485;28;21554;-61
2021/12/19 03:42:39;;;;;;;3.22;2.20;;;;;;;;;;5002723;28;20231;-60
2021/12/19 03:45:05;;;;;;;3.80;2.03;;;;;;;;;;5003679;28;20758;-61
2021/12/19 03:47:31;;;;;;;5.55;2.20;;;;;;;;;;5003080;28;20238;-61
2021/12/19 03:49:56;;;;;;;3.53;1.77;;;;;;;;;;5002373;28;20696;-61
2021/12/19 03:52:21;;;;;;;2.92;1.77;;;;;;;;;;4996604;28;20367;-61
2021/12/19 03:54:46;;;;;;;3.92;2.10;;;;;;;;;;4996672;28;20483;-61
2021/12/19 03:57:12;;;;;;;3.15;1.83;;;;;;;;;;4996296;28;20799;-61
2021/12/19 03:59:38;;;;;;;3.90;2.13;;;;;;;;;;5003883;28;20692;-61
2021/12/19 04:02:03;;;;;;;4.03;2.20;;;;;;;;;;5002695;28;20228;-61
2021/12/19 04:04:34;;;;;;;4.18;1.90;;;;;;;;;;5004481;28;20204;-61
2021/12/19 04:07:00;;;;;;;5.15;1.90;;;;;;;;;;5004169;28;20406;-61
2021/12/19 04:09:25;;;;;;;4.70;2.00;;;;;;;;;;5002978;28;20209;-61
2021/12/19 04:11:52;;;;;;;4.10;2.17;;;;;;;;;;5002645;28;20228;-61
2021/12/19 04:14:17;;;;;;;3.60;2.03;;;;;;;;;;4998541;28;20224;-61
2021/12/19 04:16:43;;;;;;;5.05;2.20;;;;;;;;;;4995246;28;20224;-61
2021/12/19 04:19:09;;;;;;;3.30;1.70;;;;;;;;;;4995545;28;20240;-61
2021/12/19 04:21:34;;;;;;;3.97;2.08;;;;;;;;;;5001694;28;20243;-61
2021/12/19 04:23:59;;;;;;;4.78;2.20;;;;;;;;;;5003444;28;20227;-61
2021/12/19 04:26:24;;;;;;;4.28;2.22;;;;;;;;;;5003325;28;20220;-61
2021/12/19 04:28:50;;;;;;;4.18;2.35;;;;;;;;;;5004118;28;20216;-61
2021/12/19 04:31:15;;;;;;;4.22;2.20;;;;;;;;;;5002482;28;20224;-61
2021/12/19 04:33:42;;;;;;;3.95;1.98;;;;;;;;;;5003738;28;20254;-61
2021/12/19 04:36:09;;;;;;;5.10;2.35;;;;;;;;;;4999816;28;20220;-62
2021/12/19 04:39:06;;;;;;;3.92;2.13;;;;;;;;;;4995356;28;20212;-61
2021/12/19 04:41:49;;;;;;;3.67;1.80;;;;;;;;;;4995022;28;20224;-61
2021/12/19 04:52:54;;;;;;;4.20;2.10;;;;;;;;;;5002325;28;20710;-61
2021/12/19 04:57:53;;;;;;;4.53;1.88;;;;;;;;;;5002027;28;20290;-61
2021/12/19 05:00:30;;;;;;;4.22;2.28;;;;;;;;;;4994694;28;20574;-61
2021/12/19 05:03:01;;;;;;;3.05;1.95;;;;;;;;;;4995538;28;20251;-61
2021/12/19 05:05:46;;;;;;;4.13;2.00;;;;;;;;;;4997176;28;20220;-61
2021/12/19 05:16:22;;;;;;;4.13;2.10;;;;;;;;;;5002514;28;20219;-61
2021/12/19 05:18:50;;;;;;;4.72;2.22;;;;;;;;;;5002855;28;20212;-61
2021/12/19 05:21:19;;;;;;;4.05;2.33;;;;;;;;;;4997522;28;20231;-61
2021/12/19 05:26:10;;;;;;;7.50;2.65;;;;;;;;;;4993545;28;20590;-61
2021/12/19 05:28:35;;;;;;;5.25;2.70;;;;;;;;;;4999098;28;20212;-61
2021/12/19 05:31:01;;;;;;;4.80;2.10;;;;;;;;;;5002408;28;20220;-63
2021/12/19 05:33:26;;;;;;;3.72;1.77;;;;;;;;;;5002486;28;20212;-61
2021/12/19 05:36:12;;;;;;;3.47;2.00;;;;;;;;;;5001596;28;20221;-60
2021/12/19 05:46:34;;;;;;;3.97;2.00;;;;;;;;;;4994446;28;20517;-61
2021/12/19 05:49:01;;;;;;;4.15;1.65;;;;;;;;;;4994184;28;20266;-61
2021/12/19 05:51:26;;;;;;;3.22;1.70;;;;;;;;;;5000873;28;20220;-61
2021/12/19 05:53:51;;;;;;;3.17;1.80;;;;;;;;;;5002893;28;20679;-61
2021/12/19 05:56:17;;;;;;;2.78;1.65;;;;;;;;;;5001745;28;20684;-61
2021/12/19 05:58:42;;;;;;;3.22;1.55;;;;;;;;;;5005134;28;20220;-61
2021/12/19 06:01:07;;;;;;;2.53;1.40;;;;;;;;;;5006233;28;20573;-61
2021/12/19 06:03:33;;;;;;;2.13;0.95;;;;;;;;;;5004204;28;20220;-61
2021/12/19 06:05:58;;;;;;;1.35;0.85;;;;;;;;;;5003031;28;20351;-61
2021/12/19 06:08:23;;;;;;;1.23;0.70;;;;;;;;;;4997972;28;20216;-61
2021/12/19 06:10:48;;;;;;;0.82;0.70;;;;;;;;;;4997548;28;20205;-61
2021/12/19 06:13:14;;;;;;;1.00;0.60;;;;;;;;;;5003491;28;20213;-61
2021/12/19 06:15:39;;;;;;;2.28;1.20;;;;;;;;;;4997090;28;20204;-61
2021/12/19 06:18:04;;;;;;;1.40;0.77;;;;;;;;;;4997377;28;20277;-61
2021/12/19 06:20:31;;;;;;;2.03;0.95;;;;;;;;;;5001533;28;20208;-61
2021/12/19 06:22:56;;;;;;;1.83;0.85;;;;;;;;;;5004300;28;20243;-61
2021/12/19 06:25:22;;;;;;;1.63;0.60;;;;;;;;;;5004295;28;20232;-61
2021/12/19 06:27:47;;;;;;;2.22;0.82;;;;;;;;;;5006374;28;20577;-61
2021/12/19 06:30:12;;;;;;;0.95;0.60;;;;;;;;;;5004874;28;20705;-61
2021/12/19 06:32:38;;;;;;;1.05;0.70;;;;;;;;;;5004897;28;20223;-61
2021/12/19 06:35:07;;;;;;;1.27;0.60;;;;;;;;;;5004596;28;20212;-61
2021/12/19 06:37:35;;;;;;;0.90;0.60;;;;;;;;;;4997990;28;20278;-61
2021/12/19 06:40:01;;;;;;;1.30;0.77;;;;;;;;;;4995801;28;20216;-61
2021/12/19 06:42:26;;;;;;;1.27;0.70;;;;;;;;;;4999845;28;20581;-61
2021/12/19 06:44:52;;;;;;;0.90;0.70;;;;;;;;;;5005869;28;20220;-61
2021/12/19 06:47:17;;;;;;;1.38;0.70;;;;;;;;;;5012063;28;20231;-61
2021/12/19 06:49:42;;;;;;;1.92;0.70;;;;;;;;;;5012936;28;20209;-60
2021/12/19 06:52:07;;;;;;;0.80;0.50;;;;;;;;;;5011111;28;20434;-60
2021/12/19 06:54:33;;;;;;;1.70;0.50;;;;;;;;;;5012809;28;20220;-59
2021/12/19 06:56:58;;;;;;;1.15;0.60;;;;;;;;;;5012914;28;20220;-60
2021/12/19 06:59:24;;;;;;;0.70;0.40;;;;;;;;;;5008567;28;20228;-63
2021/12/19 07:01:50;;;;;;;0.93;0.52;;;;;;;;;;4999223;28;20220;-62
2021/12/19 07:04:15;;;;;;;0.82;0.50;;;;;;;;;;4978669;28;20274;-62
2021/12/19 07:06:40;;;;;;;0.82;0.50;;;;;;;;;;4997057;28;20217;-62
2021/12/19 07:09:06;;;;;;;0.75;0.50;;;;;;;;;;5002081;28;20213;-63
2021/12/19 07:11:31;;;;;;;1.00;0.47;;;;;;;;;;5005953;28;20237;-62
2021/12/19 07:13:56;;;;;;;0.80;0.40;;;;;;;;;;5006052;28;20688;-62
2021/12/19 07:16:22;;;;;;;0.70;0.40;;;;;;;;;;5006334;28;20369;-62
2021/12/19 07:18:47;;;;;;;1.20;0.45;;;;;;;;;;5005839;28;20217;-62
2021/12/19 07:21:13;;;;;;;1.17;0.55;;;;;;;;;;5005763;28;20916;-61
2021/12/19 07:23:38;;;;;;;0.93;0.50;;;;;;;;;;5003454;28;20673;-61
2021/12/19 07:26:04;;;;;;;1.50;0.50;;;;;;;;;;4979506;28;20220;-62
2021/12/19 07:28:29;;;;;;;1.95;0.70;;;;;;;;;;4998602;28;20216;-62
2021/12/19 07:30:56;;;;;;;2.25;0.50;;;;;;;;;;5001044;28;20220;-61
2021/12/19 07:33:21;;;;;;;2.42;0.50;;;;;;;;;;5005376;28;20303;-62
2021/12/19 07:35:48;;;;;;;0.75;0.50;;;;;;;;;;5006556;28;20653;-61
2021/12/19 07:38:22;;;;;;;1.10;0.52;;;;;;;;;;5005577;28;20212;-61
2021/12/19 07:40:50;;;;;;;1.27;0.43;;;;;;;;;;5003886;28;20243;-63
2021/12/19 07:43:15;;;;;;;1.50;0.60;;;;;;;;;;5004050;28;20243;-63
2021/12/19 07:45:40;;;;;;;1.80;0.60;;;;;;;;;;4999704;28;20256;-63
2021/12/19 07:48:06;;;;;;;1.65;0.75;;;;;;;;;;4997108;28;20314;-63
2021/12/19 07:50:31;;;;;;;1.48;0.70;;;;;;;;;;4997793;28;20672;-59
2021/12/19 07:52:56;;;;;;;1.52;0.80;;;;;;;;;;4996535;28;20259;-60
2021/12/19 07:55:22;;;;;;;2.47;0.80;;;;;;;;;;4995387;28;20668;-60
2021/12/19 07:57:47;;;;;;;2.20;0.90;;;;;;;;;;5001399;28;20274;-59
2021/12/19 08:00:13;;;;;;;2.38;0.82;;;;;;;;;;5001517;28;20240;-60
2021/12/19 08:02:39;;;;;;;1.30;0.70;;;;;;;;;;5004372;28;20684;-60
2021/12/19 08:05:05;;;;;;;2.28;0.60;;;;;;;;;;5004233;28;20221;-60
2021/12/19 08:07:30;;;;;;;1.40;0.60;;;;;;;;;;5002245;28;20213;-60
2021/12/19 08:12:33;;;;;;;1.15;0.63;;;;;;;;;;4997016;28;20227;-60
2021/12/19 08:14:58;;;;;;;1.00;0.57;;;;;;;;;;4989368;28;20438;-60
2021/12/19 08:17:24;;;;;;;0.60;0.50;;;;;;;;;;5003572;28;20335;-60
2021/12/19 08:19:49;;;;;;;0.80;0.60;;;;;;;;;;5005861;28;20224;-60
2021/12/19 08:22:14;;;;;;;0.73;0.40;;;;;;;;;;5003611;28;20247;-60
2021/12/19 08:24:41;;;;;;;2.88;0.52;;;;;;;;;;5005420;28;20703;-60
2021/12/19 08:27:06;;;;;;;0.82;0.40;;;;;;;;;;5003995;28;20212;-60
2021/12/19 08:29:32;;;;;;;15.68;13.98;;;;;;;;;;5004499;28;20208;-60
2021/12/19 08:31:57;;;;;;;4.80;3.63;;;;;;;;;;4994248;28;20319;-60
2021/12/19 08:34:22;;;;;;;2.80;0.50;;;;;;;;;;4989565;28;21027;-60
2021/12/19 08:36:47;;;;;;;1.73;0.60;;;;;;;;;;4990365;28;20432;-59
2021/12/19 08:39:13;;;;;;;0.77;0.43;;;;;;;;;;5001004;28;20221;-60
2021/12/19 08:41:39;;;;;;;0.82;0.70;;;;;;;;;;5002202;28;20881;-60
2021/12/19 08:44:04;;;;;;;0.70;0.40;;;;;;;;;;4995333;28;20346;-60
2021/12/19 08:46:32;;;;;;;1.63;0.43;;;;;;;;;;5002558;28;20680;-60
2021/12/19 08:48:58;;;;;;;0.95;0.50;;;;;;;;;;5002392;28;20227;-60
2021/12/19 08:51:25;;;;;;;1.45;0.50;;;;;;;;;;4997992;28;20220;-60
2021/12/19 08:53:50;;;;;;;2.53;0.85;;;;;;;;;;4999080;28;20268;-59
2021/12/19 08:56:15;;;;;;;1.58;0.70;;;;;;;;;;4995144;28;20266;-60
2021/12/19 08:58:41;;;;;;;2.35;0.90;;;;;;;;;;4995603;28;20290;-60
2021/12/19 09:01:06;;;;;;;1.60;0.75;;;;;;;;;;4999459;28;20219;-60
2021/12/19 09:03:32;;;;;;;1.65;0.80;;;;;;;;;;5004342;28;20216;-59
2021/12/19 09:05:57;;;;;;;2.53;0.80;;;;;;;;;;5003018;28;20823;-60
2021/12/19 09:08:23;;;;;;;0.57;0.50;;;;;;;;;;5002422;28;20232;-60
2021/12/19 09:10:48;;;;;;;2.22;0.88;;;;;;;;;;5004814;28;20221;-59
2021/12/19 09:13:13;;;;;;;4.38;1.05;;;;;;;;;;5001909;28;20236;-59
2021/12/19 09:15:39;;;;;;;3.85;1.40;;;;;;;;;;5004406;28;20212;-60
2021/12/19 09:18:04;;;;;;;2.10;1.25;;;;;;;;;;4995222;28;20696;-59
2021/12/19 09:20:29;;;;;;;1.85;0.88;;;;;;;;;;4996308;28;20216;-60
2021/12/19 09:22:55;;;;;;;3.33;1.58;;;;;;;;;;4996603;28;20227;-60
2021/12/19 09:25:20;;;;;;;2.33;1.10;;;;;;;;;;5003502;28;20579;-60
2021/12/19 09:27:45;;;;;;;3.53;1.15;;;;;;;;;;5003847;28;20282;-60
2021/12/19 09:30:11;;;;;;;2.03;1.30;;;;;;;;;;5004175;28;20212;-60
2021/12/19 09:32:36;;;;;;;4.50;1.50;;;;;;;;;;4996637;28;20233;-60
2021/12/19 09:35:01;;;;;;;3.10;1.40;;;;;;;;;;5008268;28;20218;-60
2021/12/19 09:37:28;;;;;;;3.30;1.30;;;;;;;;;;5008569;28;20208;-60
2021/12/19 09:39:54;;;;;;;5.70;1.50;;;;;;;;;;4999693;28;20220;-60
2021/12/19 09:42:22;;;;;;;4.38;1.83;;;;;;;;;;4997981;28;20707;-60
2021/12/19 09:44:47;;;;;;;6.07;1.70;;;;;;;;;;4999854;28;20282;-60
2021/12/19 09:47:12;;;;;;;4.63;1.90;;;;;;;;;;5002230;28;20200;-60
2021/12/19 09:49:38;;;;;;;3.83;1.77;;;;;;;;;;5007533;28;20316;-60
2021/12/19 09:52:05;;;;;;;6.07;1.77;;;;;;;;;;5007040;28;20226;-60
2021/12/19 09:54:30;;;;;;;7.72;2.70;;;;;;;;;;5006761;28;20219;-60
2021/12/19 09:56:56;;;;;;;8.27;2.45;;;;;;;;;;5008082;28;20204;-60
2021/12/19 09:59:21;;;;;;;7.93;2.85;;;;;;;;;;5005910;28;20232;-60
2021/12/19 10:01:47;;;;;;;228.55;154.77;;;;;;;;;;5004551;28;20216;-60
2021/12/19 10:04:27;;;;;;;20.52;11.00;;;;;;;;;;4995119;28;20715;-60
2021/12/19 10:07:04;;;;;;;10.88;3.63;;;;;;;;;;4998134;28;20216;-60
2021/12/19 10:09:29;;;;;;;21.48;10.00;;;;;;;;;;5003224;28;20699;-60
2021/12/19 10:12:00;;;;;;;13.93;6.03;;;;;;;;;;5008190;28;20224;-60
2021/12/19 10:14:26;;;;;;;14.02;11.48;;;;;;;;;;5007224;28;20231;-60
2021/12/19 10:16:51;;;;;;;12.05;5.80;;;;;;;;;;5007189;28;20219;-60
2021/12/19 10:19:16;;;;;;;12.20;4.72;;;;;;;;;;5003936;28;20299;-60
2021/12/19 10:21:42;;;;;;;6.40;2.60;;;;;;;;;;5006632;28;20549;-60
2021/12/19 10:24:09;;;;;;;8.27;3.13;;;;;;;;;;5003570;28;20312;-60
2021/12/19 10:26:39;;;;;;;8.95;3.47;;;;;;;;;;4999852;28;20478;-60
2021/12/19 10:29:04;;;;;;;10.10;2.58;;;;;;;;;;4995298;28;20239;-60
2021/12/19 10:31:30;;;;;;;7.93;3.35;;;;;;;;;;5001221;28;20566;-65
2021/12/19 10:33:55;;;;;;;9.68;2.88;;;;;;;;;;5007597;28;20217;-65
2021/12/19 10:36:20;;;;;;;11.00;3.10;;;;;;;;;;5003118;28;20688;-65
2021/12/19 10:38:47;;;;;;;6.95;2.40;;;;;;;;;;5003237;28;20231;-65
2021/12/19 10:41:13;;;;;;;11.60;2.80;;;;;;;;;;5007071;28;20212;-65
2021/12/19 10:43:43;;;;;;;10.20;4.63;;;;;;;;;;4985692;28;20216;-65
2021/12/19 10:46:09;;;;;;;7.97;3.13;;;;;;;;;;5006423;28;20228;-65
2021/12/19 10:48:36;;;;;;;10.95;4.90;;;;;;;;;;5000089;28;20724;-65
2021/12/19 10:51:04;;;;;;;10.90;5.57;;;;;;;;;;4994058;28;20220;-65
2021/12/19 10:53:30;;;;;;;8.65;2.95;;;;;;;;;;4995661;28;20216;-65
2021/12/19 10:55:56;;;;;;;7.65;2.92;;;;;;;;;;5003605;28;20244;-65
2021/12/19 10:58:24;;;;;;;8.68;2.85;;;;;;;;;;5004633;28;20703;-65
2021/12/19 11:01:03;;;;;;;9.07;3.20;;;;;;;;;;5012013;28;20216;-65
2021/12/19 11:03:34;;;;;;;6.47;2.00;;;;;;;;;;5014018;28;20207;-65
2021/12/19 11:05:59;;;;;;;7.00;2.30;;;;;;;;;;5008722;28;20296;-65
2021/12/19 11:08:28;;;;;;;9.95;2.60;;;;;;;;;;5003175;28;20299;-65
2021/12/19 11:10:54;;;;;;;10.50;3.60;;;;;;;;;;5006108;28;21165;-59
2021/12/19 11:13:19;;;;;;;45.58;22.27;;;;;;;;;;5004550;28;20232;-59
2021/12/19 11:15:45;;;;;;;19.25;9.43;;;;;;;;;;5005477;28;20577;-59
2021/12/19 11:18:10;;;;;;;15.18;5.03;;;;;;;;;;4998636;28;20215;-59
2021/12/19 11:20:35;;;;;;;170.63;53.25;;;;;;;;;;4998498;28;20833;-60
2021/12/19 11:23:01;;;;;;;31.88;11.60;;;;;;;;;;4998107;28;20220;-60
2021/12/19 11:25:26;;;;;;;109.78;33.10;;;;;;;;;;5005063;28;20553;-59
2021/12/19 11:27:52;;;;;;;342.30;109.03;;;;;;;;;;5006383;28;20220;-59
2021/12/19 11:30:18;;;;;;;170.52;48.65;;;;;;;;;;4988779;28;20215;-60
2021/12/19 11:32:58;;;;;;;25.40;9.35;;;;;;;;;;5005152;28;20235;-59
2021/12/19 11:35:24;;;;;;;335.42;101.63;;;;;;;;;;5004492;28;20212;-59
2021/12/19 11:37:51;;;;;;;17.38;6.15;;;;;;;;;;5005096;28;20231;-60
2021/12/19 11:40:17;;;;;;;14.43;6.85;;;;;;;;;;5000552;28;20216;-60
2021/12/19 11:42:43;;;;;;;7.93;2.95;;;;;;;;;;4998054;28;20212;-58
2021/12/19 11:45:28;;;;;;;7.25;2.78;;;;;;;;;;4997693;28;20236;-59
2021/12/19 11:47:57;;;;;;;20.90;9.18;;;;;;;;;;5003764;28;20200;-59
2021/12/19 11:50:31;;;;;;;11.23;3.00;;;;;;;;;;5005439;28;20677;-59
2021/12/19 11:52:57;;;;;;;9.48;2.83;;;;;;;;;;5005970;28;20229;-58
2021/12/19 11:55:25;;;;;;;8.20;2.95;;;;;;;;;;5004109;28;20574;-58
2021/12/19 11:58:08;;;;;;;9.30;2.00;;;;;;;;;;5006111;28;20209;-59
2021/12/19 12:00:35;;;;;;;7.07;2.60;;;;;;;;;;5004916;28;20223;-59
2021/12/19 12:03:12;;;;;;;7.18;2.15;;;;;;;;;;5000870;28;20220;-60
2021/12/19 12:05:38;;;;;;;8.55;2.13;;;;;;;;;;4997123;28;20986;-60
2021/12/19 12:08:04;;;;;;;9.65;2.13;;;;;;;;;;4996503;28;20220;-60
2021/12/19 12:10:49;;;;;;;5.60;1.88;;;;;;;;;;5004350;28;20235;-60
2021/12/19 12:13:22;;;;;;;18.17;10.45;;;;;;;;;;5004936;28;20233;-60
2021/12/19 12:15:50;;;;;;;27.15;16.13;;;;;;;;;;5005336;28;20282;-60
2021/12/19 12:18:29;;;;;;;6.40;2.22;;;;;;;;;;5005294;28;21022;-60
2021/12/19 12:20:54;;;;;;;8.52;2.05;;;;;;;;;;5005555;28;20219;-60
2021/12/19 12:23:24;;;;;;;9.70;2.47;;;;;;;;;;5004625;28;21333;-60
2021/12/19 12:25:49;;;;;;;5.95;3.03;;;;;;;;;;4999511;28;20339;-60
2021/12/19 12:28:17;;;;;;;6.35;1.83;;;;;;;;;;4994805;28;20712;-60
2021/12/19 12:30:45;;;;;;;5.63;1.95;;;;;;;;;;4997335;28;20216;-60
2021/12/19 12:33:12;;;;;;;8.50;2.95;;;;;;;;;;5002445;28;20232;-60
2021/12/19 12:35:38;;;;;;;5.20;1.90;;;;;;;;;;5004935;28;20227;-60
2021/12/19 12:38:03;;;;;;;14.55;8.88;;;;;;;;;;5003400;28;20212;-60
2021/12/19 12:40:31;;;;;;;9.43;3.05;;;;;;;;;;5003964;28;20215;-59
2021/12/19 12:42:59;;;;;;;5.68;2.53;;;;;;;;;;5003262;28;20224;-68
2021/12/19 12:45:24;;;;;;;6.18;1.65;;;;;;;;;;5003375;28;20238;-68
2021/12/19 12:47:50;;;;;;;4.13;2.20;;;;;;;;;;5001127;28;20224;-66
2021/12/19 12:50:15;;;;;;;5.32;2.40;;;;;;;;;;4996115;28;20290;-68
2021/12/19 12:52:40;;;;;;;4.60;1.80;;;;;;;;;;4994729;28;20844;-68
2021/12/19 12:55:06;;;;;;;5.28;1.52;;;;;;;;;;4998102;28;20224;-68
2021/12/19 12:57:33;;;;;;;6.68;2.20;;;;;;;;;;5002608;28;20208;-69
2021/12/19 12:59:58;;;;;;;5.38;2.00;;;;;;;;;;5005210;28;20226;-69
2021/12/19 13:02:30;;;;;;;5.18;2.08;;;;;;;;;;4999563;28;20204;-68
2021/12/19 13:04:59;;;;;;;7.43;2.13;;;;;;;;;;5001772;28;20680;-68
2021/12/19 13:07:25;;;;;;;6.43;1.75;;;;;;;;;;5004270;28;20235;-68
2021/12/19 13:09:51;;;;;;;8.48;2.22;;;;;;;;;;5001408;28;20315;-69
2021/12/19 13:12:17;;;;;;;6.93;1.80;;;;;;;;;;4994794;28;20298;-69
2021/12/19 13:14:47;;;;;;;4.57;1.80;;;;;;;;;;5011807;28;20854;-68
2021/12/19 13:17:13;;;;;;;4.80;1.52;;;;;;;;;;4993092;28;20212;-68
2021/12/19 13:19:39;;;;;;;5.07;1.88;;;;;;;;;;5002836;28;20224;-68
2021/12/19 13:22:05;;;;;;;5.07;1.40;;;;;;;;;;5004135;28;20247;-68
2021/12/19 13:24:32;;;;;;;6.28;1.23;;;;;;;;;;5004523;28;20232;-69
2021/12/19 13:27:04;;;;;;;6.30;1.70;;;;;;;;;;5004945;28;20258;-69
2021/12/19 13:29:30;;;;;;;5.13;1.30;;;;;;;;;;5002949;28;20610;-70
2021/12/19 13:32:14;;;;;;;4.47;1.60;;;;;;;;;;4997689;28;20224;-69
2021/12/19 13:34:40;;;;;;;4.22;1.58;;;;;;;;;;4995198;28;20216;-70
2021/12/19 13:37:05;;;;;;;4.88;1.30;;;;;;;;;;4994883;28;20270;-69
2021/12/19 13:39:30;;;;;;;4.03;1.25;;;;;;;;;;4997221;28;20216;-70
2021/12/19 13:42:04;;;;;;;4.95;1.90;;;;;;;;;;5004246;28;20220;-70
2021/12/19 13:44:30;;;;;;;4.78;1.60;;;;;;;;;;5003017;28;20212;-70
2021/12/19 13:46:56;;;;;;;5.65;2.30;;;;;;;;;;5003735;28;20227;-70
2021/12/19 13:49:21;;;;;;;13.77;6.45;;;;;;;;;;5003828;28;20299;-70
2021/12/19 13:51:46;;;;;;;20.60;12.15;;;;;;;;;;5004491;28;20251;-70
2021/12/19 13:54:11;;;;;;;14.80;8.90;;;;;;;;;;4985846;28;20224;-69
2021/12/19 13:56:37;;;;;;;3.65;1.23;;;;;;;;;;4996503;28;20224;-70
2021/12/19 13:59:03;;;;;;;4.65;1.30;;;;;;;;;;4995866;28;20217;-69
2021/12/19 14:01:29;;;;;;;3.95;1.38;;;;;;;;;;4989804;28;20255;-70
2021/12/19 14:03:56;;;;;;;6.47;1.40;;;;;;;;;;5003192;28;20681;-70
2021/12/19 14:06:29;;;;;;;4.07;1.20;;;;;;;;;;5003688;28;20212;-70
2021/12/19 14:08:55;;;;;;;6.47;1.95;;;;;;;;;;5002347;28;20251;-70
2021/12/19 14:11:21;;;;;;;7.85;2.10;;;;;;;;;;5003085;28;21609;-70
2021/12/19 14:13:58;;;;;;;7.22;2.17;;;;;;;;;;5003702;28;20680;-60
2021/12/19 14:16:27;;;;;;;4.32;1.33;;;;;;;;;;5003779;28;20299;-60
2021/12/19 14:18:52;;;;;;;5.25;1.90;;;;;;;;;;4999057;28;20569;-60
2021/12/19 14:21:28;;;;;;;4.82;1.67;;;;;;;;;;4998182;28;20213;-60
2021/12/19 14:24:13;;;;;;;5.18;1.50;;;;;;;;;;4999736;28;20212;-60
2021/12/19 14:26:39;;;;;;;6.18;2.00;;;;;;;;;;5005713;28;20295;-60
2021/12/19 14:29:10;;;;;;;4.70;1.65;;;;;;;;;;5005062;28;20295;-60
2021/12/19 14:31:47;;;;;;;5.18;1.50;;;;;;;;;;5004393;28;20259;-60
2021/12/19 14:34:16;;;;;;;6.13;3.00;;;;;;;;;;5005679;28;20224;-60
2021/12/19 14:36:41;;;;;;;6.53;3.20;;;;;;;;;;5004885;28;20294;-60
2021/12/19 14:39:06;;;;;;;8.00;2.20;;;;;;;;;;5006634;28;20704;-60
2021/12/19 14:41:31;;;;;;;5.18;2.13;;;;;;;;;;5001780;28;20220;-60
2021/12/19 14:43:57;;;;;;;5.70;1.45;;;;;;;;;;4998535;28;20988;-60
2021/12/19 14:46:25;;;;;;;5.70;1.88;;;;;;;;;;4997235;28;20315;-60
2021/12/19 14:48:50;;;;;;;7.05;1.40;;;;;;;;;;5005225;28;20660;-60
2021/12/19 14:51:23;;;;;;;266.17;101.90;;;;;;;;;;5005636;28;20221;-60
2021/12/19 14:53:56;;;;;;;13.80;5.60;;;;;;;;;;5007367;28;20220;-60
2021/12/19 14:56:23;;;;;;;8.82;3.83;;;;;;;;;;5005940;28;20213;-60
2021/12/19 14:58:49;;;;;;;8.43;2.25;;;;;;;;;;5005660;28;20338;-60
2021/12/19 15:01:16;;;;;;;14.80;4.95;;;;;;;;;;5006417;28;20220;-60
2021/12/19 15:03:50;;;;;;;6.25;2.00;;;;;;;;;;5000689;28;20894;-60
2021/12/19 15:06:20;;;;;;;9.02;2.45;;;;;;;;;;4997823;28;20405;-60
2021/12/19 15:08:45;;;;;;;9.50;3.10;;;;;;;;;;4998961;28;20220;-60
2021/12/19 15:11:10;;;;;;;16.90;5.20;;;;;;;;;;5003173;28;20246;-60
2021/12/19 15:13:36;;;;;;;5.78;1.92;;;;;;;;;;5004668;28;20216;-60
2021/12/19 15:16:01;;;;;;;10.75;4.20;;;;;;;;;;5006468;28;20220;-60
2021/12/19 15:18:28;;;;;;;92.75;34.75;;;;;;;;;;5001561;28;20270;-60
2021/12/19 15:20:54;;;;;;;18.70;7.55;;;;;;;;;;5002899;28;20212;-60
2021/12/19 15:23:19;;;;;;;6.28;2.00;;;;;;;;;;5006047;28;20223;-60
2021/12/19 15:25:45;;;;;;;19.63;6.15;;;;;;;;;;5004143;28;20224;-60
2021/12/19 15:28:11;;;;;;;12.63;3.55;;;;;;;;;;4996893;28;20224;-61
2021/12/19 15:30:36;;;;;;;5.22;1.70;;;;;;;;;;4997357;28;20227;-60
2021/12/19 15:33:02;;;;;;;7.45;2.28;;;;;;;;;;4997354;28;20232;-61
2021/12/19 15:35:27;;;;;;;9.80;2.83;;;;;;;;;;5006143;28;20219;-60